createdAt,value
2019-02-01T00:00:14.739Z,994.27
2019-02-01T00:00:55.305Z,994.31
2019-02-01T00:01:35.863Z,994.31
2019-02-01T00:02:16.411Z,994.29
2019-02-01T00:02:56.971Z,994.27
2019-02-01T00:03:37.522Z,994.24
2019-02-01T00:04:18.075Z,994.28
2019-02-01T00:04:58.632Z,994.29
2019-02-01T00:05:39.181Z,994.26
2019-02-01T00:06:19.736Z,994.27
2019-02-01T00:07:00.292Z,994.28
2019-02-01T00:07:40.852Z,994.27
2019-02-01T00:08:21.407Z,994.27
2019-02-01T00:09:01.958Z,994.26
2019-02-01T00:09:42.540Z,994.29
2019-02-01T00:10:23.099Z,994.29
2019-02-01T00:11:03.660Z,994.28
2019-02-01T00:11:44.211Z,994.27
2019-02-01T00:12:24.773Z,994.25
2019-02-01T00:13:05.323Z,994.22
2019-02-01T00:13:45.883Z,994.2
2019-02-01T00:14:26.430Z,994.22
2019-02-01T00:15:06.985Z,994.2
2019-02-01T00:15:47.536Z,994.18
2019-02-01T00:16:28.088Z,994.23
2019-02-01T00:17:08.647Z,994.22
2019-02-01T00:17:59.807Z,994.18
2019-02-01T00:18:29.763Z,994.16
2019-02-01T00:19:10.311Z,994.18
2019-02-01T00:19:51.638Z,994.17
2019-02-01T00:20:31.403Z,994.17
2019-02-01T00:21:11.969Z,994.16
2019-02-01T00:21:52.531Z,994.16
2019-02-01T00:22:33.088Z,994.15
2019-02-01T00:23:13.648Z,994.18
2019-02-01T00:23:54.209Z,994.18
2019-02-01T00:24:34.775Z,994.18
2019-02-01T00:25:15.327Z,994.18
2019-02-01T00:25:55.874Z,994.16
2019-02-01T00:26:36.449Z,994.15
2019-02-01T00:27:17.000Z,994.16
2019-02-01T00:27:57.612Z,994.14
2019-02-01T00:28:38.113Z,994.12
2019-02-01T00:29:18.660Z,994.13
2019-02-01T00:29:59.227Z,994.17
2019-02-01T00:30:39.785Z,994.1
2019-02-01T00:31:20.337Z,994.11
2019-02-01T00:32:00.882Z,994.09
2019-02-01T00:32:41.470Z,994.09
2019-02-01T00:33:27.046Z,994.09
2019-02-01T00:34:02.694Z,994.09
2019-02-01T00:34:43.164Z,994.09
2019-02-01T00:35:23.743Z,994.06
2019-02-01T00:36:04.290Z,994.03
2019-02-01T00:36:44.873Z,993.99
2019-02-01T00:37:25.440Z,994.05
2019-02-01T00:38:05.990Z,994
2019-02-01T00:38:46.565Z,994.02
2019-02-01T00:39:27.119Z,994.03
2019-02-01T00:40:07.671Z,994.02
2019-02-01T00:40:48.218Z,994
2019-02-01T00:41:28.786Z,994
2019-02-01T00:42:09.377Z,994.02
2019-02-01T00:42:49.937Z,994
2019-02-01T00:43:30.493Z,994
2019-02-01T00:44:11.079Z,993.96
2019-02-01T00:44:51.633Z,993.97
2019-02-01T00:45:32.197Z,993.94
2019-02-01T00:46:12.745Z,993.95
2019-02-01T00:46:53.310Z,993.92
2019-02-01T00:47:33.904Z,993.9
2019-02-01T00:48:14.449Z,993.89
2019-02-01T00:48:55.006Z,993.89
2019-02-01T00:49:35.566Z,993.84
2019-02-01T00:50:16.132Z,993.86
2019-02-01T00:50:56.689Z,993.82
2019-02-01T00:51:37.266Z,993.84
2019-02-01T00:52:17.817Z,993.81
2019-02-01T00:52:58.406Z,993.82
2019-02-01T00:53:38.919Z,993.78
2019-02-01T00:54:19.478Z,993.76
2019-02-01T00:55:00.044Z,993.79
2019-02-01T00:55:40.627Z,993.79
2019-02-01T00:56:21.183Z,993.78
2019-02-01T00:57:01.736Z,993.78
2019-02-01T00:57:42.290Z,993.73
2019-02-01T00:58:22.853Z,993.76
2019-02-01T00:59:03.414Z,993.75
2019-02-01T00:59:44.032Z,993.75
2019-02-01T01:00:24.615Z,993.77
2019-02-01T01:01:05.173Z,993.75
2019-02-01T01:01:45.826Z,993.7
2019-02-01T01:02:26.269Z,993.72
2019-02-01T01:03:06.821Z,993.71
2019-02-01T01:03:47.372Z,993.69
2019-02-01T01:04:27.929Z,993.72
2019-02-01T01:05:08.503Z,993.71
2019-02-01T01:05:49.077Z,993.69
2019-02-01T01:06:29.647Z,993.7
2019-02-01T01:07:10.231Z,993.67
2019-02-01T01:07:50.814Z,993.65
2019-02-01T01:08:31.384Z,993.64
2019-02-01T01:09:11.942Z,993.64
2019-02-01T01:09:52.503Z,993.59
2019-02-01T01:10:33.055Z,993.64
2019-02-01T01:11:13.614Z,993.62
2019-02-01T01:11:54.164Z,993.61
2019-02-01T01:12:34.743Z,993.58
2019-02-01T01:13:15.330Z,993.6
2019-02-01T01:13:55.886Z,993.51
2019-02-01T01:14:36.453Z,993.57
2019-02-01T01:15:17.006Z,993.54
2019-02-01T01:15:57.558Z,993.53
2019-02-01T01:16:38.113Z,993.55
2019-02-01T01:17:18.679Z,993.49
2019-02-01T01:17:59.236Z,993.54
2019-02-01T01:18:39.802Z,993.52
2019-02-01T01:19:20.349Z,993.51
2019-02-01T01:20:00.903Z,993.51
2019-02-01T01:20:41.442Z,993.55
2019-02-01T01:21:21.999Z,993.52
2019-02-01T01:22:02.550Z,993.49
2019-02-01T01:22:43.113Z,993.5
2019-02-01T01:23:23.678Z,993.5
2019-02-01T01:24:04.236Z,993.51
2019-02-01T01:24:44.798Z,993.5
2019-02-01T01:25:25.365Z,993.46
2019-02-01T01:26:05.932Z,993.48
2019-02-01T01:26:46.486Z,993.55
2019-02-01T01:27:27.049Z,993.53
2019-02-01T01:28:07.616Z,993.52
2019-02-01T01:28:48.183Z,993.56
2019-02-01T01:29:28.736Z,993.55
2019-02-01T01:30:09.290Z,993.51
2019-02-01T01:30:49.844Z,993.54
2019-02-01T01:31:30.413Z,993.56
2019-02-01T01:32:10.971Z,993.58
2019-02-01T01:32:51.525Z,993.55
2019-02-01T01:33:32.083Z,993.65
2019-02-01T01:34:12.639Z,993.54
2019-02-01T01:34:53.224Z,993.61
2019-02-01T01:35:33.764Z,993.6
2019-02-01T01:36:14.318Z,993.56
2019-02-01T01:36:54.870Z,993.64
2019-02-01T01:37:35.429Z,993.63
2019-02-01T01:38:15.981Z,993.58
2019-02-01T01:38:56.654Z,993.64
2019-02-01T01:39:37.100Z,993.61
2019-02-01T01:40:17.654Z,993.61
2019-02-01T01:40:58.233Z,993.6
2019-02-01T01:41:38.775Z,993.6
2019-02-01T01:42:19.323Z,993.63
2019-02-01T01:42:59.889Z,993.59
2019-02-01T01:43:40.446Z,993.61
2019-02-01T01:44:21.007Z,993.62
2019-02-01T01:45:01.579Z,993.63
2019-02-01T01:45:42.128Z,993.69
2019-02-01T01:46:22.682Z,993.66
2019-02-01T01:47:03.245Z,993.65
2019-02-01T01:47:43.809Z,993.63
2019-02-01T01:48:34.574Z,993.62
2019-02-01T01:49:04.922Z,993.65
2019-02-01T01:49:45.511Z,993.67
2019-02-01T01:50:26.399Z,993.65
2019-02-01T01:51:06.945Z,993.64
2019-02-01T01:51:47.502Z,993.65
2019-02-01T01:52:28.064Z,993.63
2019-02-01T01:53:08.622Z,993.63
2019-02-01T01:53:49.180Z,993.61
2019-02-01T01:54:29.737Z,993.62
2019-02-01T01:55:10.281Z,993.59
2019-02-01T01:55:50.856Z,993.65
2019-02-01T01:56:31.415Z,993.56
2019-02-01T01:57:11.974Z,993.58
2019-02-01T01:57:52.559Z,993.62
2019-02-01T01:58:33.110Z,993.61
2019-02-01T01:59:13.684Z,993.65
2019-02-01T01:59:54.242Z,993.63
2019-02-01T02:00:34.848Z,993.67
2019-02-01T02:01:15.401Z,993.66
2019-02-01T02:01:55.990Z,993.68
2019-02-01T02:02:36.541Z,993.74
2019-02-01T02:03:17.085Z,993.72
2019-02-01T02:03:57.640Z,993.78
2019-02-01T02:04:38.188Z,993.84
2019-02-01T02:05:18.861Z,993.82
2019-02-01T02:05:59.404Z,993.85
2019-02-01T02:06:39.999Z,993.86
2019-02-01T02:07:20.545Z,993.9
2019-02-01T02:08:01.120Z,993.83
2019-02-01T02:08:41.670Z,993.85
2019-02-01T02:09:22.225Z,993.85
2019-02-01T02:10:02.785Z,993.83
2019-02-01T02:10:43.377Z,993.82
2019-02-01T02:11:23.949Z,993.86
2019-02-01T02:12:04.502Z,993.8
2019-02-01T02:12:45.055Z,993.82
2019-02-01T02:13:25.622Z,993.78
2019-02-01T02:14:06.183Z,993.73
2019-02-01T02:14:46.745Z,993.75
2019-02-01T02:15:27.372Z,993.7
2019-02-01T02:16:07.917Z,993.65
2019-02-01T02:16:48.470Z,993.64
2019-02-01T02:17:29.040Z,993.65
2019-02-01T02:18:09.603Z,993.62
2019-02-01T02:18:50.182Z,993.62
2019-02-01T02:19:30.758Z,993.59
2019-02-01T02:20:11.312Z,993.57
2019-02-01T02:20:51.868Z,993.57
2019-02-01T02:21:32.447Z,993.53
2019-02-01T02:22:13.002Z,993.53
2019-02-01T02:22:53.560Z,993.55
2019-02-01T02:23:34.110Z,993.52
2019-02-01T02:24:14.662Z,993.52
2019-02-01T02:24:55.232Z,993.5
2019-02-01T02:25:35.786Z,993.5
2019-02-01T02:26:16.348Z,993.45
2019-02-01T02:26:56.918Z,993.49
2019-02-01T02:27:37.472Z,993.46
2019-02-01T02:28:18.048Z,993.44
2019-02-01T02:28:58.612Z,993.43
2019-02-01T02:29:39.160Z,993.41
2019-02-01T02:30:19.744Z,993.4
2019-02-01T02:31:00.302Z,993.38
2019-02-01T02:31:40.875Z,993.4
2019-02-01T02:32:21.424Z,993.46
2019-02-01T02:33:01.999Z,993.48
2019-02-01T02:33:42.550Z,993.48
2019-02-01T02:34:23.106Z,993.45
2019-02-01T02:35:03.666Z,993.47
2019-02-01T02:35:44.242Z,993.48
2019-02-01T02:36:24.791Z,993.44
2019-02-01T02:37:05.350Z,993.43
2019-02-01T02:37:45.910Z,993.42
2019-02-01T02:38:26.469Z,993.41
2019-02-01T02:39:07.020Z,993.4
2019-02-01T02:39:47.598Z,993.38
2019-02-01T02:40:28.154Z,993.38
2019-02-01T02:41:08.735Z,993.4
2019-02-01T02:41:49.275Z,993.44
2019-02-01T02:42:29.835Z,993.45
2019-02-01T02:43:10.378Z,993.46
2019-02-01T02:43:50.949Z,993.48
2019-02-01T02:44:31.515Z,993.48
2019-02-01T02:45:12.067Z,993.48
2019-02-01T02:45:52.633Z,993.47
2019-02-01T02:46:33.197Z,993.43
2019-02-01T02:47:13.769Z,993.4
2019-02-01T02:47:54.331Z,993.39
2019-02-01T02:48:34.901Z,993.41
2019-02-01T02:49:15.452Z,993.38
2019-02-01T02:49:56.332Z,993.39
2019-02-01T02:50:36.893Z,993.41
2019-02-01T02:51:17.469Z,993.4
2019-02-01T02:51:58.017Z,993.36
2019-02-01T02:52:38.599Z,993.32
2019-02-01T02:53:19.168Z,993.36
2019-02-01T02:53:59.720Z,993.34
2019-02-01T02:54:40.295Z,993.35
2019-02-01T02:55:20.855Z,993.34
2019-02-01T02:56:01.402Z,993.35
2019-02-01T02:56:41.969Z,993.35
2019-02-01T02:57:22.582Z,993.31
2019-02-01T02:58:03.148Z,993.29
2019-02-01T02:58:43.696Z,993.31
2019-02-01T02:59:24.312Z,993.29
2019-02-01T03:00:04.866Z,993.24
2019-02-01T03:00:45.445Z,993.23
2019-02-01T03:01:26.004Z,993.2
2019-02-01T03:02:06.540Z,993.22
2019-02-01T03:02:47.105Z,993.21
2019-02-01T03:03:27.662Z,993.15
2019-02-01T03:04:08.206Z,993.14
2019-02-01T03:04:48.773Z,993.14
2019-02-01T03:05:29.338Z,993.12
2019-02-01T03:06:09.893Z,993.12
2019-02-01T03:06:50.452Z,993.13
2019-02-01T03:07:31.002Z,993.13
2019-02-01T03:08:11.550Z,993.14
2019-02-01T03:08:52.111Z,993.1
2019-02-01T03:09:32.672Z,993.1
2019-02-01T03:10:13.290Z,993.1
2019-02-01T03:10:53.803Z,993.07
2019-02-01T03:11:34.368Z,993.14
2019-02-01T03:12:14.992Z,993.11
2019-02-01T03:12:55.486Z,993.16
2019-02-01T03:13:36.054Z,993.12
2019-02-01T03:14:16.615Z,993.09
2019-02-01T03:14:57.187Z,993.14
2019-02-01T03:15:37.737Z,993.1
2019-02-01T03:16:18.299Z,993.11
2019-02-01T03:16:58.855Z,993.13
2019-02-01T03:17:39.414Z,993.16
2019-02-01T03:18:19.989Z,993.09
2019-02-01T03:19:11.962Z,993.14
2019-02-01T03:19:41.109Z,993.12
2019-02-01T03:20:21.680Z,993.17
2019-02-01T03:21:02.229Z,993.17
2019-02-01T03:21:42.812Z,993.19
2019-02-01T03:22:23.388Z,993.2
2019-02-01T03:23:03.948Z,993.21
2019-02-01T03:23:44.505Z,993.18
2019-02-01T03:24:25.070Z,993.2
2019-02-01T03:25:05.628Z,993.23
2019-02-01T03:25:46.173Z,993.19
2019-02-01T03:26:26.730Z,993.15
2019-02-01T03:27:07.291Z,993.19
2019-02-01T03:27:47.859Z,993.2
2019-02-01T03:28:28.412Z,993.17
2019-02-01T03:29:08.965Z,993.16
2019-02-01T03:29:49.535Z,993.2
2019-02-01T03:30:30.100Z,993.17
2019-02-01T03:31:10.664Z,993.2
2019-02-01T03:31:51.205Z,993.2
2019-02-01T03:32:31.759Z,993.17
2019-02-01T03:33:12.312Z,993.27
2019-02-01T03:33:52.866Z,993.25
2019-02-01T03:34:33.418Z,993.21
2019-02-01T03:35:13.981Z,993.21
2019-02-01T03:35:54.563Z,993.19
2019-02-01T03:36:35.123Z,993.18
2019-02-01T03:37:15.685Z,993.18
2019-02-01T03:37:56.246Z,993.15
2019-02-01T03:38:36.816Z,993.13
2019-02-01T03:39:17.361Z,993.13
2019-02-01T03:39:57.914Z,993.11
2019-02-01T03:40:38.472Z,993.13
2019-02-01T03:41:19.023Z,993.13
2019-02-01T03:41:59.577Z,993.1
2019-02-01T03:42:40.127Z,993.1
2019-02-01T03:43:20.689Z,993.08
2019-02-01T03:44:01.223Z,993.06
2019-02-01T03:44:41.792Z,993.04
2019-02-01T03:45:22.345Z,993.02
2019-02-01T03:46:03.111Z,993.01
2019-02-01T03:46:43.690Z,992.93
2019-02-01T03:47:24.229Z,992.9
2019-02-01T03:48:04.779Z,992.93
2019-02-01T03:48:45.344Z,992.9
2019-02-01T03:49:26.330Z,992.9
2019-02-01T03:50:06.469Z,992.96
2019-02-01T03:50:47.041Z,992.93
2019-02-01T03:51:27.610Z,992.93
2019-02-01T03:52:08.165Z,992.92
2019-02-01T03:52:48.728Z,992.89
2019-02-01T03:53:29.301Z,992.9
2019-02-01T03:54:09.867Z,992.89
2019-02-01T03:54:50.429Z,992.85
2019-02-01T03:55:30.985Z,992.83
2019-02-01T03:56:11.543Z,992.85
2019-02-01T03:56:52.101Z,992.82
2019-02-01T03:57:32.659Z,992.82
2019-02-01T03:58:13.270Z,992.76
2019-02-01T03:58:53.852Z,992.73
2019-02-01T03:59:34.406Z,992.71
2019-02-01T04:00:14.963Z,992.68
2019-02-01T04:00:55.524Z,992.7
2019-02-01T04:01:36.072Z,992.73
2019-02-01T04:02:16.622Z,992.7
2019-02-01T04:02:57.180Z,992.67
2019-02-01T04:03:37.731Z,992.7
2019-02-01T04:04:18.286Z,992.71
2019-02-01T04:04:58.832Z,992.68
2019-02-01T04:05:39.397Z,992.71
2019-02-01T04:06:19.965Z,992.7
2019-02-01T04:07:00.522Z,992.67
2019-02-01T04:07:41.088Z,992.69
2019-02-01T04:08:21.630Z,992.73
2019-02-01T04:09:02.193Z,992.69
2019-02-01T04:09:42.740Z,992.72
2019-02-01T04:10:23.310Z,992.69
2019-02-01T04:11:03.865Z,992.71
2019-02-01T04:11:44.426Z,992.72
2019-02-01T04:12:24.981Z,992.71
2019-02-01T04:13:05.543Z,992.74
2019-02-01T04:13:46.124Z,992.78
2019-02-01T04:14:26.701Z,992.79
2019-02-01T04:15:07.254Z,992.85
2019-02-01T04:15:47.813Z,992.8
2019-02-01T04:16:31.691Z,992.84
2019-02-01T04:17:08.923Z,992.8
2019-02-01T04:17:49.473Z,992.77
2019-02-01T04:18:30.060Z,992.78
2019-02-01T04:19:10.631Z,992.72
2019-02-01T04:19:51.197Z,992.71
2019-02-01T04:20:31.754Z,992.71
2019-02-01T04:21:12.315Z,992.71
2019-02-01T04:21:52.878Z,992.68
2019-02-01T04:22:33.440Z,992.7
2019-02-01T04:23:13.988Z,992.69
2019-02-01T04:23:54.545Z,992.69
2019-02-01T04:24:35.105Z,992.71
2019-02-01T04:25:15.658Z,992.7
2019-02-01T04:25:56.214Z,992.71
2019-02-01T04:26:36.760Z,992.69
2019-02-01T04:27:17.306Z,992.66
2019-02-01T04:27:57.987Z,992.67
2019-02-01T04:28:38.451Z,992.68
2019-02-01T04:29:19.019Z,992.68
2019-02-01T04:29:59.589Z,992.68
2019-02-01T04:30:40.158Z,992.64
2019-02-01T04:31:20.725Z,992.62
2019-02-01T04:32:01.301Z,992.61
2019-02-01T04:32:41.858Z,992.63
2019-02-01T04:33:22.431Z,992.59
2019-02-01T04:34:02.994Z,992.62
2019-02-01T04:34:43.553Z,992.55
2019-02-01T04:35:24.102Z,992.55
2019-02-01T04:36:04.646Z,992.58
2019-02-01T04:36:45.203Z,992.56
2019-02-01T04:37:25.767Z,992.56
2019-02-01T04:38:06.356Z,992.55
2019-02-01T04:38:46.917Z,992.54
2019-02-01T04:39:27.498Z,992.55
2019-02-01T04:40:08.064Z,992.5
2019-02-01T04:40:48.624Z,992.52
2019-02-01T04:41:29.168Z,992.47
2019-02-01T04:42:09.731Z,992.48
2019-02-01T04:42:50.283Z,992.45
2019-02-01T04:43:30.836Z,992.43
2019-02-01T04:44:11.388Z,992.38
2019-02-01T04:44:51.936Z,992.38
2019-02-01T04:45:32.499Z,992.4
2019-02-01T04:46:15.362Z,992.4
2019-02-01T04:46:53.637Z,992.4
2019-02-01T04:47:34.200Z,992.4
2019-02-01T04:48:14.762Z,992.43
2019-02-01T04:48:55.361Z,992.39
2019-02-01T04:49:35.975Z,992.44
2019-02-01T04:50:16.858Z,992.49
2019-02-01T04:50:57.432Z,992.5
2019-02-01T04:51:37.996Z,992.49
2019-02-01T04:52:18.559Z,992.53
2019-02-01T04:52:59.113Z,992.54
2019-02-01T04:53:39.661Z,992.51
2019-02-01T04:54:20.215Z,992.52
2019-02-01T04:55:00.787Z,992.55
2019-02-01T04:55:41.354Z,992.48
2019-02-01T04:56:21.895Z,992.51
2019-02-01T04:57:02.458Z,992.53
2019-02-01T04:57:43.021Z,992.53
2019-02-01T04:58:23.587Z,992.48
2019-02-01T04:59:04.148Z,992.44
2019-02-01T04:59:44.705Z,992.45
2019-02-01T05:00:25.274Z,992.45
2019-02-01T05:01:05.838Z,992.43
2019-02-01T05:01:46.394Z,992.45
2019-02-01T05:02:26.970Z,992.4
2019-02-01T05:03:07.526Z,992.37
2019-02-01T05:03:48.138Z,992.41
2019-02-01T05:04:28.694Z,992.35
2019-02-01T05:05:09.263Z,992.35
2019-02-01T05:05:49.867Z,992.36
2019-02-01T05:06:30.418Z,992.3
2019-02-01T05:07:10.975Z,992.35
2019-02-01T05:07:51.553Z,992.27
2019-02-01T05:08:32.098Z,992.33
2019-02-01T05:09:12.669Z,992.3
2019-02-01T05:09:53.224Z,992.33
2019-02-01T05:10:33.809Z,992.32
2019-02-01T05:11:14.371Z,992.3
2019-02-01T05:11:54.978Z,992.28
2019-02-01T05:12:35.522Z,992.28
2019-02-01T05:13:16.114Z,992.23
2019-02-01T05:13:56.674Z,992.27
2019-02-01T05:14:37.265Z,992.21
2019-02-01T05:15:17.819Z,992.22
2019-02-01T05:15:58.383Z,992.18
2019-02-01T05:16:38.963Z,992.18
2019-02-01T05:17:19.521Z,992.19
2019-02-01T05:18:00.093Z,992.19
2019-02-01T05:18:40.656Z,992.12
2019-02-01T05:19:21.205Z,992.13
2019-02-01T05:20:01.756Z,992.14
2019-02-01T05:20:42.319Z,992.14
2019-02-01T05:21:22.869Z,992.09
2019-02-01T05:22:03.436Z,992.09
2019-02-01T05:22:43.993Z,992.11
2019-02-01T05:23:24.543Z,992.14
2019-02-01T05:24:05.092Z,992.14
2019-02-01T05:24:45.654Z,992.16
2019-02-01T05:25:28.057Z,992.15
2019-02-01T05:26:06.762Z,992.11
2019-02-01T05:26:47.310Z,992.14
2019-02-01T05:27:27.867Z,992.11
2019-02-01T05:28:08.411Z,992.1
2019-02-01T05:28:48.963Z,992.15
2019-02-01T05:29:29.514Z,992.1
2019-02-01T05:30:10.092Z,992.11
2019-02-01T05:30:50.633Z,992.07
2019-02-01T05:31:31.219Z,992.01
2019-02-01T05:32:11.783Z,992.02
2019-02-01T05:32:52.528Z,991.98
2019-02-01T05:33:32.907Z,991.96
2019-02-01T05:34:13.473Z,991.94
2019-02-01T05:34:54.022Z,991.91
2019-02-01T05:35:34.593Z,991.93
2019-02-01T05:36:15.176Z,991.89
2019-02-01T05:36:55.721Z,991.87
2019-02-01T05:37:36.275Z,991.9
2019-02-01T05:38:16.823Z,991.86
2019-02-01T05:38:57.388Z,991.81
2019-02-01T05:39:37.963Z,991.77
2019-02-01T05:40:18.524Z,991.71
2019-02-01T05:40:59.079Z,991.69
2019-02-01T05:41:39.640Z,991.69
2019-02-01T05:42:20.205Z,991.68
2019-02-01T05:43:00.766Z,991.67
2019-02-01T05:43:41.375Z,991.66
2019-02-01T05:44:21.931Z,991.64
2019-02-01T05:45:02.518Z,991.64
2019-02-01T05:45:43.076Z,991.64
2019-02-01T05:46:23.648Z,991.62
2019-02-01T05:47:04.202Z,991.59
2019-02-01T05:47:44.770Z,991.59
2019-02-01T05:48:25.315Z,991.56
2019-02-01T05:49:05.866Z,991.57
2019-02-01T05:49:46.435Z,991.54
2019-02-01T05:50:29.630Z,991.49
2019-02-01T05:51:07.539Z,991.51
2019-02-01T05:51:48.237Z,991.52
2019-02-01T05:52:28.979Z,991.46
2019-02-01T05:53:09.529Z,991.55
2019-02-01T05:53:50.080Z,991.51
2019-02-01T05:54:30.711Z,991.53
2019-02-01T05:55:11.308Z,991.52
2019-02-01T05:55:51.866Z,991.59
2019-02-01T05:56:32.425Z,991.51
2019-02-01T05:57:12.964Z,991.5
2019-02-01T05:57:53.525Z,991.51
2019-02-01T05:58:34.083Z,991.55
2019-02-01T05:59:14.658Z,991.56
2019-02-01T05:59:55.251Z,991.59
2019-02-01T06:00:35.801Z,991.57
2019-02-01T06:01:16.350Z,991.62
2019-02-01T06:01:56.929Z,991.64
2019-02-01T06:02:37.518Z,991.65
2019-02-01T06:03:18.074Z,991.65
2019-02-01T06:03:58.644Z,991.69
2019-02-01T06:04:39.194Z,991.67
2019-02-01T06:05:19.774Z,991.71
2019-02-01T06:06:00.336Z,991.72
2019-02-01T06:06:40.897Z,991.74
2019-02-01T06:07:21.455Z,991.69
2019-02-01T06:08:02.020Z,991.71
2019-02-01T06:08:42.566Z,991.76
2019-02-01T06:09:23.121Z,991.77
2019-02-01T06:10:03.678Z,991.77
2019-02-01T06:10:44.252Z,991.81
2019-02-01T06:11:24.860Z,991.76
2019-02-01T06:12:05.421Z,991.78
2019-02-01T06:12:46.003Z,991.79
2019-02-01T06:13:26.562Z,991.83
2019-02-01T06:14:07.115Z,991.81
2019-02-01T06:14:47.666Z,991.85
2019-02-01T06:15:28.221Z,991.84
2019-02-01T06:16:08.777Z,991.81
2019-02-01T06:16:49.352Z,991.86
2019-02-01T06:17:29.896Z,991.82
2019-02-01T06:18:10.498Z,991.78
2019-02-01T06:18:51.043Z,991.82
2019-02-01T06:19:31.646Z,991.8
2019-02-01T06:20:12.212Z,991.81
2019-02-01T06:20:52.768Z,991.79
2019-02-01T06:21:33.330Z,991.79
2019-02-01T06:22:13.894Z,991.76
2019-02-01T06:22:54.451Z,991.78
2019-02-01T06:23:35.147Z,991.72
2019-02-01T06:24:15.691Z,991.78
2019-02-01T06:24:56.239Z,991.7
2019-02-01T06:25:36.797Z,991.78
2019-02-01T06:26:17.346Z,991.67
2019-02-01T06:26:57.899Z,991.72
2019-02-01T06:27:38.454Z,991.73
2019-02-01T06:28:19.033Z,991.7
2019-02-01T06:28:59.576Z,991.74
2019-02-01T06:29:40.136Z,991.68
2019-02-01T06:30:20.677Z,991.66
2019-02-01T06:31:01.316Z,991.68
2019-02-01T06:31:41.895Z,991.67
2019-02-01T06:32:22.474Z,991.68
2019-02-01T06:33:03.147Z,991.7
2019-02-01T06:33:43.583Z,991.75
2019-02-01T06:34:24.144Z,991.72
2019-02-01T06:35:04.697Z,991.76
2019-02-01T06:35:45.263Z,991.79
2019-02-01T06:36:25.820Z,991.77
2019-02-01T06:37:06.390Z,991.74
2019-02-01T06:37:46.952Z,991.71
2019-02-01T06:38:27.534Z,991.75
2019-02-01T06:39:08.166Z,991.75
2019-02-01T06:39:48.715Z,991.68
2019-02-01T06:40:29.280Z,991.65
2019-02-01T06:41:10.253Z,991.67
2019-02-01T06:41:50.426Z,991.7
2019-02-01T06:42:30.983Z,991.68
2019-02-01T06:43:11.549Z,991.71
2019-02-01T06:43:52.098Z,991.74
2019-02-01T06:44:32.668Z,991.75
2019-02-01T06:45:13.237Z,991.79
2019-02-01T06:45:53.996Z,991.82
2019-02-01T06:46:34.880Z,991.9
2019-02-01T06:47:15.836Z,991.88
2019-02-01T06:47:56.800Z,991.91
2019-02-01T06:48:37.706Z,991.95
2019-02-01T06:49:18.578Z,991.93
2019-02-01T06:49:59.491Z,991.9
2019-02-01T06:50:51.410Z,991.94
2019-02-01T06:51:21.067Z,991.9
2019-02-01T06:52:01.796Z,991.92
2019-02-01T06:52:42.584Z,991.95
2019-02-01T06:53:23.356Z,991.89
2019-02-01T06:54:04.090Z,991.95
2019-02-01T06:54:44.796Z,991.88
2019-02-01T06:55:25.691Z,991.88
2019-02-01T06:56:06.431Z,991.81
2019-02-01T06:56:47.095Z,991.87
2019-02-01T06:57:28.263Z,991.83
2019-02-01T06:58:09.033Z,991.8
2019-02-01T06:58:49.653Z,991.83
2019-02-01T07:01:43.406Z,991.87
2019-02-01T07:02:24.094Z,991.88
2019-02-01T07:03:04.955Z,991.89
2019-02-01T07:03:45.639Z,991.87
2019-02-01T07:04:26.335Z,991.86
2019-02-01T07:05:07.017Z,991.82
2019-02-01T07:05:47.734Z,991.86
2019-02-01T07:06:28.463Z,991.83
2019-02-01T07:07:09.181Z,991.92
2019-02-01T07:07:50.000Z,991.88
2019-02-01T07:08:30.890Z,991.88
2019-02-01T07:09:11.998Z,991.94
2019-02-01T07:09:53.068Z,991.97
2019-02-01T07:10:33.633Z,992
2019-02-01T07:11:14.195Z,991.94
2019-02-01T07:11:54.759Z,991.98
2019-02-01T07:12:35.346Z,992.05
2019-02-01T07:13:15.928Z,992.01
2019-02-01T07:13:56.556Z,992.06
2019-02-01T07:14:37.225Z,992
2019-02-01T07:15:17.773Z,992.04
2019-02-01T07:15:58.375Z,992.02
2019-02-01T07:16:38.971Z,992.05
2019-02-01T07:17:19.547Z,991.98
2019-02-01T07:18:00.113Z,992.03
2019-02-01T07:18:40.712Z,992.06
2019-02-01T07:19:21.286Z,992.1
2019-02-01T07:20:01.853Z,992.07
2019-02-01T07:20:42.404Z,992.06
2019-02-01T07:21:22.968Z,992.09
2019-02-01T07:22:03.536Z,992.01
2019-02-01T07:22:44.108Z,992
2019-02-01T07:23:24.680Z,991.94
2019-02-01T07:24:05.302Z,991.99
2019-02-01T07:24:46.660Z,992.03
2019-02-01T07:25:27.204Z,991.96
2019-02-01T07:26:08.041Z,992.03
2019-02-01T07:26:48.722Z,992.07
2019-02-01T07:27:29.417Z,992.06
2019-02-01T07:28:09.969Z,992.08
2019-02-01T07:28:50.598Z,992.08
2019-02-01T07:29:31.127Z,992.06
2019-02-01T07:30:11.716Z,992.01
2019-02-01T07:30:53.201Z,991.98
2019-02-01T07:31:33.929Z,991.99
2019-02-01T07:32:14.589Z,992
2019-02-01T07:32:55.174Z,992.03
2019-02-01T07:33:35.755Z,992.02
2019-02-01T07:34:17.242Z,991.99
2019-02-01T07:34:57.837Z,991.94
2019-02-01T07:35:38.430Z,991.88
2019-02-01T07:36:19.133Z,991.84
2019-02-01T07:36:59.614Z,991.84
2019-02-01T07:37:40.180Z,991.86
2019-02-01T07:38:20.816Z,991.84
2019-02-01T07:39:01.370Z,991.83
2019-02-01T07:39:42.000Z,991.82
2019-02-01T07:40:22.636Z,991.79
2019-02-01T07:41:03.353Z,991.82
2019-02-01T07:41:44.333Z,991.77
2019-02-01T07:42:25.171Z,991.82
2019-02-01T07:43:05.731Z,991.75
2019-02-01T07:43:46.298Z,991.75
2019-02-01T07:44:26.857Z,991.73
2019-02-01T07:45:08.058Z,991.71
2019-02-01T07:45:48.667Z,991.77
2019-02-01T07:46:29.218Z,991.75
2019-02-01T07:47:09.786Z,991.76
2019-02-01T07:47:50.376Z,991.72
2019-02-01T07:48:31.047Z,991.73
2019-02-01T07:49:12.265Z,991.74
2019-02-01T07:49:52.901Z,991.73
2019-02-01T07:50:33.560Z,991.71
2019-02-01T07:51:15.272Z,991.71
2019-02-01T07:51:54.801Z,991.71
2019-02-01T07:52:35.717Z,991.72
2019-02-01T07:53:16.269Z,991.65
2019-02-01T07:53:56.862Z,991.62
2019-02-01T07:54:37.419Z,991.65
2019-02-01T07:55:17.991Z,991.63
2019-02-01T07:55:58.549Z,991.66
2019-02-01T07:56:39.188Z,991.57
2019-02-01T07:57:19.754Z,991.59
2019-02-01T07:58:00.408Z,991.62
2019-02-01T07:58:40.971Z,991.62
2019-02-01T07:59:21.583Z,991.6
2019-02-01T08:00:02.143Z,991.63
2019-02-01T08:00:42.712Z,991.65
2019-02-01T08:01:23.278Z,991.66
2019-02-01T08:02:03.901Z,991.69
2019-02-01T08:02:44.449Z,991.75
2019-02-01T08:03:24.998Z,991.75
2019-02-01T08:04:05.614Z,991.78
2019-02-01T08:04:47.710Z,991.78
2019-02-01T08:05:28.280Z,991.8
2019-02-01T08:06:08.833Z,991.73
2019-02-01T08:06:49.444Z,991.71
2019-02-01T08:07:30.000Z,991.58
2019-02-01T08:08:10.566Z,991.65
2019-02-01T08:08:51.181Z,991.58
2019-02-01T08:09:31.707Z,991.65
2019-02-01T08:10:12.281Z,991.64
2019-02-01T08:10:52.926Z,991.6
2019-02-01T08:11:33.490Z,991.6
2019-02-01T08:12:14.248Z,991.62
2019-02-01T08:12:54.849Z,991.53
2019-02-01T08:13:35.548Z,991.53
2019-02-01T08:14:16.207Z,991.56
2019-02-01T08:14:56.834Z,991.46
2019-02-01T08:15:37.459Z,991.44
2019-02-01T08:16:18.017Z,991.37
2019-02-01T08:16:58.579Z,991.4
2019-02-01T08:17:39.186Z,991.42
2019-02-01T08:18:19.742Z,991.43
2019-02-01T08:19:00.341Z,991.37
2019-02-01T08:19:40.942Z,991.39
2019-02-01T08:20:21.444Z,991.33
2019-02-01T08:21:02.003Z,991.37
2019-02-01T08:21:42.570Z,991.39
2019-02-01T08:22:23.155Z,991.48
2019-02-01T08:23:03.707Z,991.44
2019-02-01T08:23:44.239Z,991.49
2019-02-01T08:24:24.795Z,991.47
2019-02-01T08:25:05.347Z,991.47
2019-02-01T08:25:45.895Z,991.44
2019-02-01T08:26:26.477Z,991.47
2019-02-01T08:27:07.013Z,991.52
2019-02-01T08:27:47.641Z,991.5
2019-02-01T08:28:28.206Z,991.46
2019-02-01T08:29:08.756Z,991.52
2019-02-01T08:29:49.342Z,991.5
2019-02-01T08:30:29.919Z,991.49